Time;durP1;ratioP1;P1;durP2;ratioP2;P2;SDS_P1;SDS_P2;PMS_P1;PMS_P2;Temp;Humidity;BMP_temperature;BMP_pressure;BME280_temperature;BME280_humidity;BME280_pressure;Samples;Min_cycle;Max_cycle;Signal;HPM_P1;HPM_P2
2024/04/12 00:00:33;;;;;;;;;;;15.50;99.90;;;;;;5455563;26;19942;-74
2024/04/12 00:03:01;;;;;;;;;;;15.50;99.90;;;;;;5451185;26;20267;-72
2024/04/12 00:05:27;;;;;;;;;;;15.40;99.90;;;;;;5450397;26;19936;-72
2024/04/12 00:08:01;;;;;;;;;;;15.40;99.90;;;;;;5452783;26;19929;-72
2024/04/12 00:10:27;;;;;;;;;;;15.40;99.90;;;;;;5451765;26;19997;-73
2024/04/12 00:12:53;;;;;;;;;;;15.40;99.90;;;;;;5452747;26;19968;-73
2024/04/12 00:15:21;;;;;;;;;;;15.40;99.90;;;;;;5452531;26;19998;-72
2024/04/12 00:17:47;;;;;;;;;;;15.40;99.90;;;;;;5450562;26;19938;-73
2024/04/12 00:20:13;;;;;;;;;;;15.40;99.90;;;;;;5452002;26;19928;-73
2024/04/12 00:22:39;;;;;;;;;;;15.50;99.90;;;;;;5452972;26;20367;-73
2024/04/12 00:25:04;;;;;;;;;;;15.80;99.90;;;;;;5452018;26;19961;-71
2024/04/12 00:27:33;;;;;;;;;;;15.60;99.90;;;;;;5452535;26;19929;-72
2024/04/12 00:30:03;;;;;;;;;;;15.40;99.90;;;;;;5450229;26;19932;-72
2024/04/12 00:32:28;;;;;;;;;;;15.40;99.90;;;;;;5450799;26;19929;-72
2024/04/12 00:34:55;;;;;;;;;;;15.40;99.90;;;;;;5450858;26;19935;-72
2024/04/12 00:37:20;;;;;;;;;;;15.30;99.90;;;;;;5452807;26;19951;-72
2024/04/12 00:39:49;;;;;;;;;;;15.40;99.90;;;;;;5450158;26;20490;-72
2024/04/12 00:42:18;;;;;;;;;;;15.40;99.90;;;;;;5451263;26;19944;-72
2024/04/12 00:44:45;;;;;;;;;;;15.40;99.90;;;;;;5451269;26;19939;-72
2024/04/12 00:47:20;;;;;;;;;;;15.40;99.90;;;;;;5450382;26;19932;-72
2024/04/12 00:49:51;;;;;;;;;;;15.60;99.90;;;;;;5431232;26;20241;-73
2024/04/12 00:52:16;;;;;;;;;;;15.60;99.90;;;;;;5451928;26;19928;-72
2024/04/12 00:54:42;;;;;;;;;;;15.70;99.90;;;;;;5449947;26;20382;-73
2024/04/12 00:57:09;;;;;;;;;;;15.70;99.90;;;;;;5449806;26;19936;-73
2024/04/12 00:59:36;;;;;;;;;;;15.70;99.90;;;;;;5449546;26;19928;-72
2024/04/12 01:02:08;;;;;;;;;;;15.70;99.90;;;;;;5449473;26;19940;-73
2024/04/12 01:04:36;;;;;;;;;;;15.80;99.90;;;;;;5449785;26;19929;-72
2024/04/12 01:07:04;;;;;;;;;;;15.70;99.90;;;;;;5449788;26;19936;-72
2024/04/12 01:09:30;;;;;;;;;;;15.60;99.90;;;;;;5451091;26;19929;-73
2024/04/12 01:11:59;;;;;;;;;;;15.70;99.90;;;;;;5451185;26;19944;-73
2024/04/12 01:14:25;;;;;;;;;;;15.70;99.90;;;;;;5451627;26;19997;-73
2024/04/12 01:16:54;;;;;;;;;;;15.80;99.90;;;;;;5451401;26;19936;-73
2024/04/12 01:19:20;;;;;;;;;;;15.80;99.90;;;;;;5449560;26;19936;-73
2024/04/12 01:21:47;;;;;;;;;;;15.80;99.90;;;;;;5451191;26;19974;-73
2024/04/12 01:24:16;;;;;;;;;;;15.90;99.90;;;;;;5451504;26;19984;-73
2024/04/12 01:26:42;;;;;;;;;;;15.90;99.90;;;;;;5451263;26;20010;-73
2024/04/12 01:29:07;;;;;;;;;;;15.70;99.90;;;;;;5450043;26;20381;-72
2024/04/12 01:31:36;;;;;;;;;;;15.50;99.90;;;;;;5451928;26;20267;-73
2024/04/12 01:34:01;;;;;;;;;;;15.40;99.90;;;;;;5441876;26;20376;-73
2024/04/12 01:36:27;;;;;;;;;;;15.50;99.90;;;;;;5450924;26;19928;-74
2024/04/12 01:38:53;;;;;;;;;;;15.40;99.90;;;;;;5449063;26;19929;-73
2024/04/12 01:41:22;;;;;;;;;;;15.40;99.90;;;;;;5449235;26;19936;-73
2024/04/12 01:43:52;;;;;;;;;;;15.40;99.90;;;;;;5451639;26;19933;-72
2024/04/12 01:46:27;;;;;;;;;;;15.40;99.90;;;;;;5451264;26;20452;-72
2024/04/12 01:48:57;;;;;;;;;;;15.30;99.90;;;;;;5444398;26;19929;-73
2024/04/12 01:51:24;;;;;;;;;;;15.40;99.90;;;;;;5449281;26;20261;-74
2024/04/12 01:53:54;;;;;;;;;;;15.30;99.90;;;;;;5448720;26;20305;-74
2024/04/12 01:56:21;;;;;;;;;;;15.20;99.90;;;;;;5450860;26;19932;-71
2024/04/12 01:58:48;;;;;;;;;;;15.20;99.90;;;;;;5450214;26;20001;-73
2024/04/12 02:01:16;;;;;;;;;;;15.20;99.90;;;;;;5451237;26;19929;-72
2024/04/12 02:03:42;;;;;;;;;;;15.20;99.90;;;;;;5448869;26;19955;-73
2024/04/12 02:06:08;;;;;;;;;;;15.30;99.90;;;;;;5451332;26;19940;-73
2024/04/12 02:08:35;;;;;;;;;;;15.40;99.90;;;;;;5451301;26;19928;-73
2024/04/12 02:11:05;;;;;;;;;;;15.50;99.90;;;;;;5453057;26;19994;-72
2024/04/12 02:13:35;;;;;;;;;;;15.70;99.90;;;;;;5451369;26;19928;-73
2024/04/12 02:16:01;;;;;;;;;;;15.60;99.90;;;;;;5450665;26;19928;-72
2024/04/12 02:18:32;;;;;;;;;;;15.50;99.90;;;;;;5448777;26;19929;-73
2024/04/12 02:21:04;;;;;;;;;;;15.30;99.90;;;;;;5450715;26;19929;-72
2024/04/12 02:23:32;;;;;;;;;;;15.10;99.90;;;;;;5450121;26;20379;-72
2024/04/12 02:25:58;;;;;;;;;;;15.20;99.90;;;;;;5450613;26;19941;-72
2024/04/12 02:28:26;;;;;;;;;;;15.30;99.90;;;;;;5450483;26;19962;-73
2024/04/12 02:30:57;;;;;;;;;;;15.60;99.90;;;;;;5450194;26;20265;-72
2024/04/12 02:33:27;;;;;;;;;;;15.70;99.90;;;;;;5448504;26;19936;-73
2024/04/12 02:35:59;;;;;;;;;;;15.70;99.90;;;;;;5450169;26;19935;-72
2024/04/12 02:38:26;;;;;;;;;;;15.70;99.90;;;;;;5448685;26;19940;-72
2024/04/12 02:40:52;;;;;;;;;;;15.60;99.90;;;;;;5447962;26;19936;-73
2024/04/12 02:43:18;;;;;;;;;;;15.60;99.90;;;;;;5446504;26;19933;-72
2024/04/12 02:45:53;;;;;;;;;;;15.50;99.90;;;;;;5444887;26;20360;-73
2024/04/12 02:48:22;;;;;;;;;;;15.40;99.90;;;;;;5454446;26;19929;-73
2024/04/12 02:50:48;;;;;;;;;;;15.30;99.90;;;;;;5451196;26;20380;-73
2024/04/12 02:53:18;;;;;;;;;;;15.20;99.90;;;;;;5454049;26;19932;-72
2024/04/12 02:56:03;;;;;;;;;;;15.20;99.90;;;;;;5453527;26;19932;-73
2024/04/12 02:58:38;;;;;;;;;;;15.30;99.90;;;;;;5453830;26;19932;-73
2024/04/12 03:01:05;;;;;;;;;;;15.50;99.90;;;;;;5453809;26;19935;-72
2024/04/12 03:03:35;;;;;;;;;;;15.70;99.90;;;;;;5453634;26;19997;-73
2024/04/12 03:06:01;;;;;;;;;;;15.60;99.90;;;;;;5454010;26;19928;-73
2024/04/12 03:08:26;;;;;;;;;;;15.70;99.90;;;;;;5453577;26;19938;-73
2024/04/12 03:10:57;;;;;;;;;;;15.60;99.90;;;;;;5466799;26;20268;-72
2024/04/12 03:13:23;;;;;;;;;;;15.60;99.90;;;;;;5462846;26;19944;-73
2024/04/12 03:15:49;;;;;;;;;;;15.60;99.90;;;;;;5453447;26;19935;-73
2024/04/12 03:18:15;;;;;;;;;;;15.50;99.90;;;;;;5453607;26;19928;-71
2024/04/12 03:20:41;;;;;;;;;;;15.50;99.90;;;;;;5453047;26;20263;-73
2024/04/12 03:23:07;;;;;;;;;;;15.60;99.90;;;;;;5453767;26;19932;-75
2024/04/12 03:25:37;;;;;;;;;;;15.70;99.90;;;;;;5453194;26;19936;-74
2024/04/12 03:28:04;;;;;;;;;;;15.80;99.90;;;;;;5453228;26;19940;-75
2024/04/12 03:30:29;;;;;;;;;;;15.90;99.90;;;;;;5452697;26;19935;-75
2024/04/12 03:33:02;;;;;;;;;;;15.80;99.90;;;;;;5452692;26;19940;-74
2024/04/12 03:35:32;;;;;;;;;;;15.80;99.90;;;;;;5453529;26;20249;-75
2024/04/12 03:40:45;;;;;;;;;;;15.90;99.90;;;;;;5452523;26;19939;-74
2024/04/12 03:43:11;;;;;;;;;;;15.80;99.90;;;;;;5453525;26;20376;-75
2024/04/12 03:45:37;;;;;;;;;;;15.80;99.90;;;;;;5451088;26;19935;-75
2024/04/12 03:48:13;;;;;;;;;;;15.70;99.90;;;;;;5451454;26;19929;-75
2024/04/12 03:50:41;;;;;;;;;;;15.70;99.90;;;;;;5475804;26;19935;-75
2024/04/12 03:53:16;;;;;;;;;;;15.60;99.90;;;;;;5450999;26;19935;-75
2024/04/12 03:55:44;;;;;;;;;;;15.60;99.90;;;;;;5450922;26;19928;-75
2024/04/12 03:58:19;;;;;;;;;;;15.60;99.90;;;;;;5452832;26;19937;-74
2024/04/12 04:00:45;;;;;;;;;;;15.60;99.90;;;;;;5449998;26;19928;-74
2024/04/12 04:03:30;;;;;;;;;;;15.60;99.90;;;;;;5453307;26;20279;-74
2024/04/12 04:05:56;;;;;;;;;;;15.60;99.90;;;;;;5445375;26;19929;-75
2024/04/12 04:08:22;;;;;;;;;;;15.70;99.90;;;;;;5442167;26;20223;-74
2024/04/12 04:10:49;;;;;;;;;;;15.70;99.90;;;;;;5442473;26;20324;-75
2024/04/12 04:13:15;;;;;;;;;;;15.80;99.90;;;;;;5463682;26;19928;-74
2024/04/12 04:15:50;;;;;;;;;;;15.90;99.90;;;;;;5432047;26;19935;-75
2024/04/12 04:18:17;;;;;;;;;;;15.80;99.90;;;;;;5452605;26;19928;-74
2024/04/12 04:20:43;;;;;;;;;;;15.70;99.90;;;;;;5452377;26;19954;-75
2024/04/12 04:23:09;;;;;;;;;;;15.70;99.90;;;;;;5448882;26;19944;-74
2024/04/12 04:25:35;;;;;;;;;;;15.80;99.90;;;;;;5452322;26;19976;-75
2024/04/12 04:28:09;;;;;;;;;;;15.80;99.90;;;;;;5453998;26;19933;-75
2024/04/12 04:30:35;;;;;;;;;;;15.70;99.90;;;;;;5453060;26;19929;-75
2024/04/12 04:33:01;;;;;;;;;;;15.70;99.90;;;;;;5450659;26;19939;-75
2024/04/12 04:35:27;;;;;;;;;;;15.70;99.90;;;;;;5449823;26;19929;-75
2024/04/12 04:37:53;;;;;;;;;;;15.80;99.90;;;;;;5450743;26;20248;-75
2024/04/12 04:40:19;;;;;;;;;;;15.80;99.90;;;;;;5449874;26;20337;-74
2024/04/12 04:42:45;;;;;;;;;;;15.90;99.90;;;;;;5450253;26;19933;-75
2024/04/12 04:45:17;;;;;;;;;;;15.70;99.90;;;;;;5452022;26;19928;-75
2024/04/12 04:47:44;;;;;;;;;;;15.60;99.90;;;;;;5450091;26;20373;-75
2024/04/12 04:50:10;;;;;;;;;;;15.80;99.90;;;;;;5451722;26;20348;-75
2024/04/12 04:52:36;;;;;;;;;;;15.80;99.90;;;;;;5457962;26;19954;-75
2024/04/12 04:55:02;;;;;;;;;;;15.70;99.90;;;;;;5465985;26;19956;-75
2024/04/12 04:57:29;;;;;;;;;;;15.80;99.90;;;;;;5451526;26;19929;-75
2024/04/12 05:00:06;;;;;;;;;;;15.80;99.90;;;;;;5449660;26;19929;-75
2024/04/12 05:02:34;;;;;;;;;;;15.80;99.90;;;;;;5450183;26;20634;-75
2024/04/12 05:05:04;;;;;;;;;;;15.90;99.90;;;;;;5443703;26;19929;-75
2024/04/12 05:07:35;;;;;;;;;;;15.90;99.90;;;;;;5461410;26;19964;-76
2024/04/12 05:10:09;;;;;;;;;;;15.90;99.90;;;;;;5459438;26;19956;-75
2024/04/12 05:12:38;;;;;;;;;;;16.00;99.90;;;;;;5451735;26;19940;-75
2024/04/12 05:17:54;;;;;;;;;;;16.00;99.90;;;;;;5451870;26;20441;-75
2024/04/12 05:20:20;;;;;;;;;;;16.00;99.90;;;;;;5443099;26;19929;-76
2024/04/12 05:22:46;;;;;;;;;;;16.00;99.90;;;;;;5435616;26;20013;-75
2024/04/12 05:25:14;;;;;;;;;;;16.00;99.90;;;;;;5450569;26;20234;-75
2024/04/12 05:27:40;;;;;;;;;;;16.00;99.90;;;;;;5463240;26;19935;-75
2024/04/12 05:30:07;;;;;;;;;;;16.10;99.90;;;;;;5438252;26;19974;-75
2024/04/12 05:32:32;;;;;;;;;;;16.20;99.90;;;;;;5452112;26;19936;-75
2024/04/12 05:34:58;;;;;;;;;;;16.20;99.90;;;;;;5438152;26;19997;-75
2024/04/12 05:37:23;;;;;;;;;;;16.30;99.90;;;;;;5451524;26;19935;-75
2024/04/12 05:39:50;;;;;;;;;;;16.30;99.90;;;;;;5450194;26;19935;-75
2024/04/12 05:42:16;;;;;;;;;;;16.20;99.90;;;;;;5461366;26;20018;-76
2024/04/12 05:44:43;;;;;;;;;;;16.30;99.90;;;;;;5446501;26;19936;-74
2024/04/12 05:47:09;;;;;;;;;;;16.40;99.90;;;;;;5446417;26;19963;-76
2024/04/12 05:49:36;;;;;;;;;;;16.50;99.90;;;;;;5434441;26;20337;-75
2024/04/12 05:52:02;;;;;;;;;;;16.50;99.90;;;;;;5451616;26;19932;-75
2024/04/12 05:54:39;;;;;;;;;;;16.60;99.90;;;;;;5446377;26;20400;-77
2024/04/12 05:57:06;;;;;;;;;;;16.50;99.90;;;;;;5444168;26;19944;-76
2024/04/12 05:59:32;;;;;;;;;;;16.50;99.90;;;;;;5448147;26;20329;-76
2024/04/12 06:02:01;;;;;;;;;;;16.40;99.90;;;;;;5448848;26;19936;-76
2024/04/12 06:04:27;;;;;;;;;;;16.40;99.90;;;;;;5450808;26;20332;-78
2024/04/12 06:06:54;;;;;;;;;;;16.50;99.90;;;;;;5451239;26;19936;-76
2024/04/12 06:09:20;;;;;;;;;;;16.60;99.90;;;;;;5468123;26;19935;-75
2024/04/12 06:12:01;;;;;;;;;;;16.80;99.90;;;;;;5447152;26;19928;-76
2024/04/12 06:14:26;;;;;;;;;;;16.90;99.90;;;;;;5446277;26;20023;-82
2024/04/12 06:16:55;;;;;;;;;;;16.90;99.90;;;;;;5456757;26;19939;-76
2024/04/12 06:19:21;;;;;;;;;;;16.90;99.90;;;;;;5468079;26;19928;-76
2024/04/12 06:21:48;;;;;;;;;;;16.90;99.90;;;;;;5450798;26;19934;-77
2024/04/12 06:24:29;;;;;;;;;;;17.00;99.90;;;;;;5452736;26;19928;-76
2024/04/12 06:26:58;;;;;;;;;;;17.20;99.90;;;;;;5446571;26;20395;-77
2024/04/12 06:29:26;;;;;;;;;;;17.40;99.90;;;;;;5439872;26;19932;-76
2024/04/12 06:31:55;;;;;;;;;;;17.40;99.90;;;;;;5452059;26;19929;-76
2024/04/12 06:34:22;;;;;;;;;;;17.50;99.90;;;;;;5449773;26;19958;-76
2024/04/12 06:36:55;;;;;;;;;;;17.50;99.90;;;;;;5433498;26;19929;-76
2024/04/12 06:39:26;;;;;;;;;;;17.50;99.90;;;;;;5440712;26;19929;-76
2024/04/12 06:42:08;;;;;;;;;;;17.60;99.90;;;;;;5442271;26;19937;-76
2024/04/12 06:44:33;;;;;;;;;;;17.50;99.90;;;;;;5464867;26;19940;-76
2024/04/12 06:47:00;;;;;;;;;;;17.70;99.90;;;;;;5454973;26;19978;-75
2024/04/12 06:49:29;;;;;;;;;;;17.70;99.90;;;;;;5435349;26;19936;-76
2024/04/12 06:52:09;;;;;;;;;;;17.80;99.90;;;;;;5430802;26;19994;-74
2024/04/12 06:54:41;;;;;;;;;;;17.90;99.90;;;;;;5451504;26;20345;-75
2024/04/12 06:57:07;;;;;;;;;;;17.90;99.90;;;;;;5450758;26;19929;-75
2024/04/12 06:59:35;;;;;;;;;;;17.90;99.90;;;;;;5448938;26;19935;-75
2024/04/12 07:02:04;;;;;;;;;;;17.90;99.90;;;;;;5442793;26;19929;-75
2024/04/12 07:04:30;;;;;;;;;;;17.70;99.90;;;;;;5435851;26;19957;-75
2024/04/12 07:06:56;;;;;;;;;;;17.90;99.90;;;;;;5439502;26;20340;-76
2024/04/12 07:09:22;;;;;;;;;;;18.00;99.90;;;;;;5448592;26;19936;-76
2024/04/12 07:11:51;;;;;;;;;;;17.80;99.90;;;;;;5452078;26;20285;-78
2024/04/12 07:14:23;;;;;;;;;;;17.80;99.90;;;;;;5432225;26;20000;-77
2024/04/12 07:16:48;;;;;;;;;;;17.80;99.90;;;;;;5451364;26;19936;-75
2024/04/12 07:19:18;;;;;;;;;;;17.90;99.90;;;;;;5452118;26;19935;-75
2024/04/12 07:21:54;;;;;;;;;;;18.10;99.90;;;;;;5448463;26;19933;-76
2024/04/12 07:24:22;;;;;;;;;;;18.00;99.90;;;;;;5450653;26;20309;-78
2024/04/12 07:26:54;;;;;;;;;;;18.00;99.90;;;;;;5450017;26;19936;-76
2024/04/12 07:29:21;;;;;;;;;;;17.90;99.90;;;;;;5451831;26;19951;-76
2024/04/12 07:31:53;;;;;;;;;;;18.10;99.90;;;;;;5458498;26;19977;-75
2024/04/12 07:34:18;;;;;;;;;;;18.10;99.90;;;;;;5435532;26;19936;-75
2024/04/12 07:36:44;;;;;;;;;;;18.20;99.90;;;;;;5434634;26;19997;-75
2024/04/12 07:39:15;;;;;;;;;;;18.30;99.90;;;;;;5438986;26;19928;-75
2024/04/12 07:41:45;;;;;;;;;;;18.40;99.90;;;;;;5446408;26;19936;-74
2024/04/12 07:44:12;;;;;;;;;;;18.40;99.90;;;;;;5458356;26;19935;-79
2024/04/12 07:46:38;;;;;;;;;;;18.40;99.90;;;;;;5438608;26;19936;-76
2024/04/12 07:49:04;;;;;;;;;;;18.30;99.90;;;;;;5458525;26;20007;-78
2024/04/12 07:51:32;;;;;;;;;;;18.40;99.90;;;;;;5449274;26;20469;-76
2024/04/12 07:54:03;;;;;;;;;;;18.40;99.90;;;;;;5452079;26;19940;-76
2024/04/12 07:56:37;;;;;;;;;;;18.50;99.90;;;;;;5440856;26;19936;-76
2024/04/12 07:59:25;;;;;;;;;;;18.50;99.90;;;;;;5442702;26;19929;-75
2024/04/12 08:01:57;;;;;;;;;;;18.50;99.90;;;;;;5451065;26;20294;-76
2024/04/12 08:04:23;;;;;;;;;;;18.60;99.90;;;;;;5441375;26;20301;-76
2024/04/12 08:06:55;;;;;;;;;;;18.50;99.90;;;;;;5449144;26;19928;-76
2024/04/12 08:09:34;;;;;;;;;;;18.60;99.90;;;;;;5439648;26;19998;-75
2024/04/12 08:12:15;;;;;;;;;;;18.60;99.90;;;;;;5429810;26;20367;-76
2024/04/12 08:14:54;;;;;;;;;;;18.70;99.90;;;;;;5447495;26;20005;-76
2024/04/12 08:17:23;;;;;;;;;;;18.90;99.90;;;;;;5449490;26;19935;-77
2024/04/12 08:19:50;;;;;;;;;;;18.90;99.90;;;;;;5438389;26;20275;-75
2024/04/12 08:22:18;;;;;;;;;;;19.00;99.90;;;;;;5451139;26;19932;-75
2024/04/12 08:24:49;;;;;;;;;;;19.10;99.90;;;;;;5450971;26;19937;-75
2024/04/12 08:27:18;;;;;;;;;;;19.30;99.90;;;;;;5438698;26;20228;-75
2024/04/12 08:29:45;;;;;;;;;;;19.40;99.90;;;;;;5431980;26;19929;-75
2024/04/12 08:34:36;;;;;;;;;;;19.50;99.90;;;;;;5449598;26;19938;-74
2024/04/12 08:37:12;;;;;;;;;;;19.60;99.90;;;;;;5449630;26;20392;-76
2024/04/12 08:39:52;;;;;;;;;;;19.70;99.90;;;;;;5443110;26;19928;-77
2024/04/12 08:42:18;;;;;;;;;;;19.90;99.90;;;;;;5443303;26;19944;-75
2024/04/12 08:44:44;;;;;;;;;;;20.00;99.90;;;;;;5450709;26;19929;-75
2024/04/12 08:47:29;;;;;;;;;;;20.20;99.90;;;;;;5450765;26;21402;-74
2024/04/12 08:50:12;;;;;;;;;;;20.20;99.90;;;;;;5450564;26;19940;-75
2024/04/12 08:52:47;;;;;;;;;;;20.10;99.90;;;;;;5446483;26;19997;-75
2024/04/12 08:55:14;;;;;;;;;;;20.10;99.90;;;;;;5459762;26;19979;-75
2024/04/12 08:57:41;;;;;;;;;;;20.10;99.90;;;;;;5428977;26;20280;-78
2024/04/12 09:00:09;;;;;;;;;;;20.20;99.90;;;;;;5448990;26;19976;-76
2024/04/12 09:02:40;;;;;;;;;;;20.20;99.90;;;;;;5431843;26;19933;-75
2024/04/12 09:05:06;;;;;;;;;;;20.30;99.90;;;;;;5450295;26;19932;-75
2024/04/12 09:07:35;;;;;;;;;;;20.30;99.90;;;;;;5450564;26;19936;-75
2024/04/12 09:10:01;;;;;;;;;;;20.50;99.90;;;;;;5449765;26;19997;-75
2024/04/12 09:12:27;;;;;;;;;;;20.50;99.90;;;;;;5450762;26;19937;-75
2024/04/12 09:14:53;;;;;;;;;;;20.50;99.90;;;;;;5450022;26;19935;-78
2024/04/12 09:17:25;;;;;;;;;;;20.60;99.90;;;;;;5423714;26;19929;-77
2024/04/12 09:19:51;;;;;;;;;;;20.60;99.90;;;;;;5442898;26;19936;-78
2024/04/12 09:22:18;;;;;;;;;;;20.70;99.90;;;;;;5448219;26;20000;-78
2024/04/12 09:24:46;;;;;;;;;;;20.80;99.90;;;;;;5440972;26;19937;-76
2024/04/12 09:27:13;;;;;;;;;;;20.80;99.90;;;;;;5450316;26;20261;-76
2024/04/12 09:29:45;;;;;;;;;;;20.80;99.90;;;;;;5450284;26;19944;-78
2024/04/12 09:34:55;;;;;;;;;;;20.80;99.90;;;;;;5449231;26;20556;-75
2024/04/12 09:37:38;;;;;;;;;;;20.80;99.90;;;;;;5449034;26;19940;-76
2024/04/12 09:40:16;;;;;;;;;;;20.90;99.90;;;;;;5457843;26;19932;-75
2024/04/12 09:45:21;;;;;;;;;;;20.90;99.90;;;;;;5448904;26;19928;-78
2024/04/12 10:38:02;;;;;;;;;;;23.20;99.90;;;;;;5459511;26;19995;-79
2024/04/12 10:40:30;;;;;;;;;;;23.10;99.90;;;;;;5441871;26;19947;-76
2024/04/12 10:42:57;;;;;;;;;;;23.20;99.90;;;;;;5452190;26;19996;-81
2024/04/12 10:45:25;;;;;;;;;;;23.30;99.90;;;;;;5447187;26;19941;-76
2024/04/12 10:47:54;;;;;;;;;;;23.30;99.90;;;;;;5453234;26;19928;-77
2024/04/12 10:50:21;;;;;;;;;;;23.40;99.90;;;;;;5442403;26;19935;-76
2024/04/12 10:52:47;;;;;;;;;;;23.60;99.90;;;;;;5446222;26;19935;-76
2024/04/12 10:55:16;;;;;;;;;;;23.20;99.90;;;;;;5443862;26;19964;-76
2024/04/12 10:57:42;;;;;;;;;;;23.10;99.90;;;;;;5452175;26;19935;-76
2024/04/12 11:00:14;;;;;;;;;;;23.10;99.90;;;;;;5450535;26;19948;-78
2024/04/12 11:02:45;;;;;;;;;;;23.20;99.90;;;;;;5437299;26;20447;-77
2024/04/12 11:07:47;;;;;;;;;;;23.20;99.90;;;;;;5437924;26;20513;-77
2024/04/12 11:10:24;;;;;;;;;;;23.20;99.90;;;;;;5445935;26;19929;-76
2024/04/12 11:13:08;;;;;;;;;;;23.30;99.90;;;;;;5436204;26;19929;-77
2024/04/12 11:31:55;;;;;;;;;;;23.50;99.90;;;;;;5441932;26;19965;-76
2024/04/12 11:34:21;;;;;;;;;;;23.40;99.90;;;;;;5447142;26;19929;-79
2024/04/12 11:36:46;;;;;;;;;;;23.40;99.90;;;;;;5431676;26;19936;-76
2024/04/12 11:39:17;;;;;;;;;;;23.30;99.90;;;;;;5459948;26;19939;-78
2024/04/12 11:41:44;;;;;;;;;;;23.20;99.90;;;;;;5451658;26;19936;-76
2024/04/12 11:44:10;;;;;;;;;;;22.90;99.90;;;;;;5451499;26;19936;-78
2024/04/12 11:46:36;;;;;;;;;;;22.90;99.90;;;;;;5445612;26;19928;-77
2024/04/12 11:49:07;;;;;;;;;;;22.60;99.90;;;;;;5440339;26;19928;-77
2024/04/12 11:51:33;;;;;;;;;;;22.40;99.90;;;;;;5446606;26;19997;-78
2024/04/12 11:53:59;;;;;;;;;;;22.40;99.90;;;;;;5449232;26;19965;-78
2024/04/12 11:56:25;;;;;;;;;;;22.40;99.90;;;;;;5403318;26;19937;-77
2024/04/12 11:58:51;;;;;;;;;;;22.70;99.90;;;;;;5427255;26;19933;-78
2024/04/12 12:01:18;;;;;;;;;;;22.80;99.90;;;;;;5436869;26;20417;-76
2024/04/12 12:03:43;;;;;;;;;;;22.80;99.90;;;;;;5445688;26;19932;-76
2024/04/12 12:06:09;;;;;;;;;;;22.90;99.90;;;;;;5451824;26;19956;-77
2024/04/12 12:08:41;;;;;;;;;;;23.00;99.90;;;;;;5450688;26;19928;-76
2024/04/12 12:11:08;;;;;;;;;;;23.10;99.90;;;;;;5449113;26;19998;-77
2024/04/12 12:13:34;;;;;;;;;;;23.10;99.90;;;;;;5440000;26;19929;-76
2024/04/12 12:15:59;;;;;;;;;;;23.10;99.90;;;;;;5451721;26;19939;-77
2024/04/12 12:18:27;;;;;;;;;;;23.20;99.90;;;;;;5446433;26;19992;-77
2024/04/12 12:20:53;;;;;;;;;;;23.10;99.90;;;;;;5438953;26;20009;-77
2024/04/12 12:23:19;;;;;;;;;;;22.90;99.90;;;;;;5446940;26;19948;-77
2024/04/12 12:25:47;;;;;;;;;;;22.80;99.90;;;;;;5443296;26;20368;-78
2024/04/12 12:28:13;;;;;;;;;;;22.80;99.90;;;;;;5442294;26;19936;-77
2024/04/12 12:30:38;;;;;;;;;;;22.70;99.90;;;;;;5435240;26;19936;-77
2024/04/12 12:33:07;;;;;;;;;;;22.60;99.90;;;;;;5448239;26;20292;-76
2024/04/12 12:35:33;;;;;;;;;;;22.50;99.90;;;;;;5445114;26;19940;-77
2024/04/12 12:38:01;;;;;;;;;;;22.50;99.90;;;;;;5450473;26;20058;-76
2024/04/12 12:40:30;;;;;;;;;;;22.40;99.90;;;;;;5441663;26;20329;-77
2024/04/12 12:42:55;;;;;;;;;;;22.30;99.90;;;;;;5447605;26;20436;-76
2024/04/12 12:45:21;;;;;;;;;;;22.40;99.90;;;;;;5451411;26;19936;-77
2024/04/12 12:47:47;;;;;;;;;;;22.40;99.90;;;;;;5433031;26;20364;-76
2024/04/12 12:50:23;;;;;;;;;;;22.50;99.90;;;;;;5450966;26;20516;-76
2024/04/12 12:52:51;;;;;;;;;;;22.60;99.90;;;;;;5440362;26;19933;-76
2024/04/12 12:55:19;;;;;;;;;;;22.70;99.90;;;;;;5450878;26;20343;-76
2024/04/12 12:57:45;;;;;;;;;;;22.70;99.90;;;;;;5438988;26;19944;-76
2024/04/12 13:00:18;;;;;;;;;;;22.70;99.90;;;;;;5443148;26;19997;-77
2024/04/12 13:02:44;;;;;;;;;;;22.70;99.90;;;;;;5450574;26;19943;-76
2024/04/12 13:05:14;;;;;;;;;;;22.60;99.90;;;;;;5446717;26;19929;-76
2024/04/12 13:07:40;;;;;;;;;;;22.60;99.90;;;;;;5448724;26;20019;-77
2024/04/12 13:10:12;;;;;;;;;;;22.60;99.90;;;;;;5449787;26;20372;-77
2024/04/12 13:12:38;;;;;;;;;;;22.60;99.90;;;;;;5438968;26;19928;-77
2024/04/12 13:15:12;;;;;;;;;;;22.60;99.90;;;;;;5444432;26;19932;-77
2024/04/12 13:17:38;;;;;;;;;;;22.60;99.90;;;;;;5447959;26;19948;-76
2024/04/12 13:20:06;;;;;;;;;;;22.70;99.90;;;;;;5439804;26;20364;-77
2024/04/12 13:22:32;;;;;;;;;;;22.70;99.90;;;;;;5442050;26;19940;-76
2024/04/12 13:25:01;;;;;;;;;;;23.00;99.90;;;;;;5440108;26;20275;-77
2024/04/12 13:27:29;;;;;;;;;;;23.10;99.90;;;;;;5447039;26;19928;-77
2024/04/12 13:29:55;;;;;;;;;;;23.00;99.90;;;;;;5433342;26;19929;-77
2024/04/12 13:32:20;;;;;;;;;;;22.90;99.90;;;;;;5447341;26;19936;-76
2024/04/12 13:34:46;;;;;;;;;;;22.90;99.90;;;;;;5451350;26;20379;-77
2024/04/12 13:37:14;;;;;;;;;;;23.00;99.90;;;;;;5450917;26;19929;-76
2024/04/12 13:39:39;;;;;;;;;;;23.10;99.90;;;;;;5440290;26;19928;-75
2024/04/12 13:42:10;;;;;;;;;;;23.40;99.90;;;;;;5432170;26;20448;-75
2024/04/12 13:52:49;;;;;;;;;;;23.80;99.90;;;;;;5449660;26;20399;-76
2024/04/12 13:55:14;;;;;;;;;;;23.70;99.90;;;;;;5448941;26;19932;-76
2024/04/12 13:57:43;;;;;;;;;;;23.70;99.90;;;;;;5445810;26;19935;-77
2024/04/12 14:00:10;;;;;;;;;;;23.70;99.90;;;;;;5445486;26;20001;-77
2024/04/12 14:02:36;;;;;;;;;;;23.60;99.90;;;;;;5427664;26;19936;-76
2024/04/12 14:05:02;;;;;;;;;;;23.40;99.90;;;;;;5474792;26;19928;-76
2024/04/12 14:07:33;;;;;;;;;;;23.10;99.90;;;;;;5439742;26;19964;-76
2024/04/12 14:10:03;;;;;;;;;;;22.90;99.90;;;;;;5428291;26;19929;-76
2024/04/12 14:12:29;;;;;;;;;;;22.90;99.90;;;;;;5452984;26;20286;-75
2024/04/12 14:14:54;;;;;;;;;;;23.10;99.90;;;;;;5445021;26;19938;-75
2024/04/12 14:17:20;;;;;;;;;;;23.30;99.90;;;;;;5450707;26;19933;-77
2024/04/12 14:19:46;;;;;;;;;;;23.30;99.90;;;;;;5449931;26;20001;-76
2024/04/12 14:22:12;;;;;;;;;;;23.30;99.90;;;;;;5445374;26;20407;-76
2024/04/12 14:27:32;;;;;;;;;;;23.40;99.90;;;;;;5441964;26;20372;-77
2024/04/12 14:29:59;;;;;;;;;;;23.80;99.90;;;;;;5450859;26;19929;-76
2024/04/12 14:32:24;;;;;;;;;;;23.70;99.90;;;;;;5450634;26;20275;-79
2024/04/12 14:34:51;;;;;;;;;;;23.60;99.90;;;;;;5452602;26;19929;-77
2024/04/12 14:37:18;;;;;;;;;;;23.30;99.90;;;;;;5454615;26;19936;-78
2024/04/12 14:39:46;;;;;;;;;;;23.30;99.90;;;;;;5453713;26;19960;-77
2024/04/12 14:42:16;;;;;;;;;;;23.50;99.90;;;;;;5455082;26;19936;-77
2024/04/12 14:44:43;;;;;;;;;;;23.50;99.90;;;;;;5458934;26;20046;-77
2024/04/12 14:47:10;;;;;;;;;;;23.30;99.90;;;;;;5455065;26;20123;-78
2024/04/12 14:49:36;;;;;;;;;;;23.20;99.90;;;;;;5454370;26;19928;-77
2024/04/12 14:52:02;;;;;;;;;;;23.10;99.90;;;;;;5454190;26;20279;-77
2024/04/12 14:54:28;;;;;;;;;;;23.10;99.90;;;;;;5452652;26;19929;-78
2024/04/12 14:56:55;;;;;;;;;;;23.20;99.90;;;;;;5446579;26;19935;-77
2024/04/12 14:59:21;;;;;;;;;;;23.10;99.90;;;;;;5442180;26;19937;-75
2024/04/12 15:01:47;;;;;;;;;;;23.10;99.90;;;;;;5453956;26;19940;-78
2024/04/12 15:48:10;;;;;;;;;;;23.20;99.90;;;;;;5451971;26;19998;-75
2024/04/12 15:50:37;;;;;;;;;;;23.20;99.90;;;;;;5450767;26;19956;-74
2024/04/12 15:53:18;;;;;;;;;;;23.10;99.90;;;;;;5450523;26;19954;-76
2024/04/12 16:12:10;;;;;;;;;;;22.70;99.90;;;;;;5452724;26;19935;-75
2024/04/12 16:14:35;;;;;;;;;;;22.60;99.90;;;;;;5453126;26;19929;-75
2024/04/12 16:17:01;;;;;;;;;;;22.70;99.90;;;;;;5450685;26;19937;-75
2024/04/12 16:19:26;;;;;;;;;;;22.70;99.90;;;;;;5452214;26;19997;-75
2024/04/12 16:21:52;;;;;;;;;;;22.70;99.90;;;;;;5450528;26;19937;-75
2024/04/12 16:24:17;;;;;;;;;;;22.60;99.90;;;;;;5455180;26;19977;-74
2024/04/12 16:26:43;;;;;;;;;;;22.60;99.90;;;;;;5446065;26;20318;-75
2024/04/12 16:29:09;;;;;;;;;;;22.50;99.90;;;;;;5450642;26;19955;-77
2024/04/12 16:31:36;;;;;;;;;;;22.30;99.90;;;;;;5452355;26;20271;-75
2024/04/12 16:34:02;;;;;;;;;;;22.20;99.90;;;;;;5452521;26;19932;-76
2024/04/12 16:36:28;;;;;;;;;;;22.30;99.90;;;;;;5450902;26;19939;-76
2024/04/12 16:38:53;;;;;;;;;;;22.20;99.90;;;;;;5450407;26;20043;-76
2024/04/12 16:41:19;;;;;;;;;;;22.10;99.90;;;;;;5450909;26;19928;-76
2024/04/12 16:43:45;;;;;;;;;;;22.10;99.90;;;;;;5453283;26;19934;-76
2024/04/12 16:46:14;;;;;;;;;;;22.00;99.90;;;;;;5437438;26;19993;-76
2024/04/12 16:48:40;;;;;;;;;;;22.00;99.90;;;;;;5452874;26;20392;-75
2024/04/12 16:51:05;;;;;;;;;;;21.90;99.90;;;;;;5453323;26;19932;-76
2024/04/12 16:53:37;;;;;;;;;;;21.80;99.90;;;;;;5452340;26;19940;-76
2024/04/12 16:56:03;;;;;;;;;;;21.80;99.90;;;;;;5451987;26;19935;-76